Time;durP1;ratioP1;P1;durP2;ratioP2;P2;SDS_P1;SDS_P2;PMS_P1;PMS_P2;Temp;Humidity;BMP_temperature;BMP_pressure;BME280_temperature;BME280_humidity;BME280_pressure;Samples;Min_cycle;Max_cycle;Signal;HPM_P1;HPM_P2
2023/03/23 00:01:07;;;;;;;6.47;2.72;;;13.10;99.90;;;;;;5032196;28;20176;-44
2023/03/23 00:03:32;;;;;;;4.35;3.08;;;13.00;99.90;;;;;;5031049;28;20160;-46
2023/03/23 00:06:04;;;;;;;3.03;2.13;;;13.10;99.90;;;;;;5031899;28;20234;-44
2023/03/23 00:08:30;;;;;;;8.07;2.58;;;;;;;;;;5032050;28;20226;-45
2023/03/23 00:10:56;;;;;;;5.22;2.58;;;;;;;;;;5032078;28;20254;-44
2023/03/23 00:13:26;;;;;;;5.70;2.88;;;13.00;99.90;;;;;;5032227;28;20243;-44
2023/03/23 00:15:52;;;;;;;4.25;2.45;;;13.10;99.90;;;;;;5031675;28;20175;-49
2023/03/23 00:18:22;;;;;;;5.15;2.42;;;13.00;99.90;;;;;;5031987;28;20515;-44
2023/03/23 00:20:58;;;;;;;4.35;2.90;;;13.10;99.90;;;;;;5031571;28;20298;-44
2023/03/23 00:23:25;;;;;;;6.35;2.95;;;13.10;99.90;;;;;;5031545;28;20155;-46
2023/03/23 00:25:58;;;;;;;4.00;2.35;;;13.00;99.90;;;;;;5031614;28;20687;-44
2023/03/23 00:28:26;;;;;;;7.05;3.28;;;13.10;99.90;;;;;;5031385;28;20175;-46
2023/03/23 00:30:59;;;;;;;4.20;2.50;;;13.00;99.90;;;;;;5031809;28;20171;-45
2023/03/23 00:33:27;;;;;;;3.85;2.63;;;13.00;99.90;;;;;;5031395;28;20199;-45
2023/03/23 00:35:54;;;;;;;4.30;2.78;;;;;;;;;;5031394;28;20176;-46
2023/03/23 00:38:21;;;;;;;5.68;2.30;;;13.00;99.90;;;;;;5031335;28;20635;-44
2023/03/23 00:40:47;;;;;;;5.57;2.95;;;13.00;99.90;;;;;;5031351;28;20178;-48
2023/03/23 00:43:16;;;;;;;4.18;3.05;;;13.10;99.90;;;;;;5031378;28;20174;-44
2023/03/23 00:45:44;;;;;;;7.28;2.88;;;12.90;99.90;;;;;;5031450;28;20256;-44
2023/03/23 00:48:13;;;;;;;4.55;2.53;;;13.00;99.90;;;;;;5031198;28;20530;-45
2023/03/23 00:50:39;;;;;;;6.70;3.00;;;12.90;99.90;;;;;;5031282;28;20174;-45
2023/03/23 00:53:05;;;;;;;6.70;3.35;;;12.90;99.90;;;;;;5031526;28;20179;-45
2023/03/23 00:55:31;;;;;;;7.38;3.22;;;12.90;99.90;;;;;;5031426;28;20661;-46
2023/03/23 00:57:57;;;;;;;5.10;3.03;;;12.90;99.90;;;;;;5031500;28;20635;-48
2023/03/23 01:00:23;;;;;;;7.00;2.88;;;13.00;99.90;;;;;;5031085;28;20570;-45
2023/03/23 01:02:51;;;;;;;3.95;2.22;;;13.00;99.90;;;;;;5030996;28;20263;-44
2023/03/23 01:05:17;;;;;;;4.95;2.30;;;13.00;99.90;;;;;;5030997;28;20226;-46
2023/03/23 01:07:44;;;;;;;5.85;2.08;;;13.00;99.90;;;;;;5030736;28;20226;-47
2023/03/23 01:10:12;;;;;;;3.03;1.80;;;13.00;99.90;;;;;;5030994;28;20703;-47
2023/03/23 01:12:38;;;;;;;3.83;1.77;;;13.00;99.90;;;;;;5031294;28;20179;-44
2023/03/23 01:15:05;;;;;;;1.98;1.70;;;13.00;99.90;;;;;;5030994;28;20254;-44
2023/03/23 01:17:31;;;;;;;2.95;1.60;;;;;;;;;;5034650;28;20167;-46
2023/03/23 01:19:56;;;;;;;2.53;1.38;;;13.00;99.90;;;;;;5035576;28;20171;-45
2023/03/23 01:22:22;;;;;;;1.98;1.35;;;13.00;99.90;;;;;;5034014;28;20674;-45
2023/03/23 01:24:47;;;;;;;4.70;2.03;;;12.90;99.90;;;;;;5034854;28;20198;-44
2023/03/23 01:27:13;;;;;;;2.58;1.92;;;;;;;;;;5034847;28;20207;-45
2023/03/23 01:29:39;;;;;;;1.85;1.40;;;12.90;99.90;;;;;;5035079;28;20202;-45
2023/03/23 01:32:04;;;;;;;4.55;2.20;;;12.90;99.90;;;;;;5034730;28;20167;-46
2023/03/23 01:34:31;;;;;;;3.53;1.90;;;12.70;99.90;;;;;;5034383;28;20176;-46
2023/03/23 01:36:57;;;;;;;2.08;1.88;;;12.80;99.90;;;;;;5035204;28;20186;-44
2023/03/23 01:39:22;;;;;;;2.90;1.63;;;12.70;99.90;;;;;;5034490;28;20175;-45
2023/03/23 01:41:48;;;;;;;1.80;1.30;;;12.70;99.90;;;;;;5034612;28;20171;-44
2023/03/23 01:44:16;;;;;;;3.38;1.63;;;12.60;99.90;;;;;;5034419;28;20206;-45
2023/03/23 01:46:44;;;;;;;2.40;1.80;;;12.60;99.90;;;;;;5034520;28;20206;-45
2023/03/23 01:49:19;;;;;;;4.10;2.25;;;12.60;99.90;;;;;;5034464;28;20685;-46
2023/03/23 01:51:52;;;;;;;3.95;2.20;;;12.50;99.90;;;;;;5034276;28;20174;-45
2023/03/23 01:54:21;;;;;;;4.35;1.75;;;12.50;99.90;;;;;;5034317;28;20221;-44
2023/03/23 01:57:13;;;;;;;2.53;2.22;;;12.50;99.90;;;;;;5034255;28;20176;-44
2023/03/23 01:59:40;;;;;;;2.53;2.00;;;12.40;99.90;;;;;;5034314;28;20167;-47
2023/03/23 02:02:06;;;;;;;3.45;2.03;;;;;;;;;;5033921;28;20199;-45
2023/03/23 02:04:33;;;;;;;5.90;3.35;;;12.50;99.90;;;;;;5033892;28;20172;-44
2023/03/23 02:07:00;;;;;;;4.22;2.40;;;;;;;;;;5034016;28;20199;-47
2023/03/23 02:09:25;;;;;;;2.65;2.13;;;12.50;99.90;;;;;;5034193;28;20261;-45
2023/03/23 02:11:53;;;;;;;3.35;2.15;;;12.50;99.90;;;;;;5033922;28;20191;-45
2023/03/23 02:14:20;;;;;;;4.28;2.78;;;12.50;99.90;;;;;;5034085;28;20601;-45
2023/03/23 02:16:52;;;;;;;5.55;2.80;;;12.50;99.90;;;;;;5032880;28;20661;-46
2023/03/23 02:19:48;;;;;;;6.85;2.92;;;12.50;99.90;;;;;;5034034;28;20514;-45
2023/03/23 02:22:25;;;;;;;3.25;2.40;;;12.50;99.90;;;;;;5033424;28;20174;-45
2023/03/23 02:25:03;;;;;;;4.15;2.65;;;12.50;99.90;;;;;;5033677;28;20155;-44
2023/03/23 02:27:48;;;;;;;4.75;2.38;;;12.50;99.90;;;;;;5033802;28;20187;-44
2023/03/23 02:30:13;;;;;;;4.55;1.90;;;12.40;99.90;;;;;;5033908;28;20184;-45
2023/03/23 02:32:55;;;;;;;1.85;1.70;;;12.40;99.90;;;;;;5033585;28;20218;-44
2023/03/23 02:35:34;;;;;;;2.47;2.10;;;12.40;99.90;;;;;;5033678;28;20164;-46
2023/03/23 02:38:13;;;;;;;3.83;1.98;;;12.30;99.90;;;;;;5033937;28;20178;-46
2023/03/23 02:40:47;;;;;;;3.85;2.38;;;12.40;99.90;;;;;;5033506;28;20175;-45
2023/03/23 02:43:23;;;;;;;5.13;2.40;;;12.40;99.90;;;;;;5033823;28;20248;-53
2023/03/23 02:45:51;;;;;;;4.15;2.35;;;12.40;99.90;;;;;;5032293;28;20574;-52
2023/03/23 02:48:22;;;;;;;3.80;2.10;;;12.40;99.90;;;;;;5033652;28;20160;-53
2023/03/23 02:50:50;;;;;;;4.30;2.22;;;12.40;99.90;;;;;;5033377;28;20160;-53
2023/03/23 02:53:21;;;;;;;2.83;2.30;;;12.40;99.90;;;;;;5033682;28;20167;-50
2023/03/23 02:55:48;;;;;;;4.55;2.30;;;12.40;99.90;;;;;;5033513;28;20261;-52
2023/03/23 02:58:14;;;;;;;4.10;2.10;;;12.40;99.90;;;;;;5033587;28;20262;-52
2023/03/23 03:00:40;;;;;;;4.40;2.40;;;;;;;;;;5033047;28;20171;-52
2023/03/23 03:03:12;;;;;;;3.20;2.00;;;12.40;99.90;;;;;;5032055;28;20176;-52
2023/03/23 03:06:14;;;;;;;4.47;2.40;;;12.40;99.90;;;;;;5033028;28;20207;-52
2023/03/23 03:08:52;;;;;;;4.80;2.30;;;12.40;99.90;;;;;;5032864;28;20210;-52
2023/03/23 03:11:25;;;;;;;2.17;1.98;;;12.40;99.90;;;;;;5033175;28;20535;-52
2023/03/23 03:14:04;;;;;;;3.90;2.00;;;12.30;99.90;;;;;;5032855;28;20540;-45
2023/03/23 03:16:30;;;;;;;2.90;2.00;;;;;;;;;;5032856;28;20168;-45
2023/03/23 03:19:25;;;;;;;4.18;2.25;;;12.40;99.90;;;;;;5033245;28;20175;-44
2023/03/23 03:21:52;;;;;;;5.63;2.22;;;12.30;99.90;;;;;;5032672;28;20747;-44
2023/03/23 03:24:19;;;;;;;4.22;2.90;;;12.30;99.90;;;;;;5032945;28;20609;-45
2023/03/23 03:26:48;;;;;;;4.32;2.30;;;12.30;99.90;;;;;;5032869;28;20206;-45
2023/03/23 03:29:29;;;;;;;2.33;1.90;;;12.40;99.90;;;;;;5032261;28;20175;-44
2023/03/23 03:31:56;;;;;;;2.88;2.28;;;12.40;99.90;;;;;;5032961;28;20210;-46
2023/03/23 03:34:23;;;;;;;5.35;1.60;;;12.40;99.90;;;;;;5032502;28;20784;-45
2023/03/23 03:36:51;;;;;;;1.50;1.40;;;12.30;99.90;;;;;;5032396;28;20176;-46
2023/03/23 03:39:19;;;;;;;4.20;1.63;;;;;;;;;;5031613;28;20182;-49
2023/03/23 03:41:45;;;;;;;3.08;1.70;;;12.40;99.90;;;;;;5032541;28;20170;-47
2023/03/23 03:44:11;;;;;;;2.13;1.83;;;12.40;99.90;;;;;;5032951;28;20163;-46
2023/03/23 03:46:37;;;;;;;2.47;1.92;;;12.40;99.90;;;;;;5033030;28;20248;-46
2023/03/23 03:49:08;;;;;;;2.92;2.10;;;12.40;99.90;;;;;;5032752;28;20529;-46
2023/03/23 03:51:35;;;;;;;1.52;1.42;;;12.50;99.90;;;;;;5032880;28;20167;-47
2023/03/23 03:54:01;;;;;;;3.47;1.95;;;12.50;99.90;;;;;;5032547;28;20523;-45
2023/03/23 03:56:27;;;;;;;6.95;2.75;;;12.50;99.90;;;;;;5032706;28;20172;-47
2023/03/23 03:58:53;;;;;;;4.55;2.88;;;12.50;99.90;;;;;;5032360;28;20182;-46
2023/03/23 04:01:22;;;;;;;4.55;1.63;;;12.50;99.90;;;;;;5032502;28;20163;-46
2023/03/23 04:03:49;;;;;;;3.42;1.75;;;12.40;99.90;;;;;;5032407;28;20703;-46
2023/03/23 04:06:15;;;;;;;4.78;2.70;;;12.50;99.90;;;;;;5032618;28;20211;-46
2023/03/23 04:08:42;;;;;;;2.50;2.05;;;12.50;99.90;;;;;;5032533;28;20223;-47
2023/03/23 04:11:10;;;;;;;2.20;1.73;;;12.50;99.90;;;;;;5032708;28;20182;-47
2023/03/23 04:13:36;;;;;;;5.30;1.90;;;12.40;99.90;;;;;;5032276;28;20586;-48
2023/03/23 04:16:02;;;;;;;3.40;1.60;;;12.40;99.90;;;;;;5032492;28;20192;-46
2023/03/23 04:18:28;;;;;;;3.45;1.80;;;12.40;99.90;;;;;;5032601;28;20206;-45
2023/03/23 04:20:59;;;;;;;1.65;1.55;;;12.50;99.90;;;;;;5032472;28;20288;-45
2023/03/23 04:23:25;;;;;;;2.63;1.90;;;12.40;99.90;;;;;;5032555;28;20209;-46
2023/03/23 04:25:53;;;;;;;1.85;1.70;;;12.40;99.90;;;;;;5032021;28;20210;-46
2023/03/23 04:28:23;;;;;;;3.17;2.40;;;12.50;99.90;;;;;;5032300;28;20171;-44
2023/03/23 04:30:52;;;;;;;4.35;2.20;;;12.50;99.90;;;;;;5031466;28;20175;-45
2023/03/23 04:33:19;;;;;;;5.30;2.42;;;12.40;99.90;;;;;;5032176;28;20175;-45
2023/03/23 04:35:47;;;;;;;5.05;2.78;;;12.50;99.90;;;;;;5031968;28;20163;-45
2023/03/23 04:38:15;;;;;;;3.28;2.47;;;12.50;99.90;;;;;;5032187;28;20175;-45
2023/03/23 04:40:43;;;;;;;6.50;2.92;;;12.40;99.90;;;;;;5032064;28;20171;-45
2023/03/23 04:43:11;;;;;;;3.45;2.22;;;12.50;99.90;;;;;;5031751;28;20512;-46
2023/03/23 04:45:37;;;;;;;4.25;2.38;;;12.50;99.90;;;;;;5032235;28;20205;-45
2023/03/23 04:48:04;;;;;;;4.40;2.42;;;12.60;99.90;;;;;;5031776;28;20167;-45
2023/03/23 04:50:32;;;;;;;18.52;3.45;;;12.50;99.90;;;;;;5031307;28;20643;-45
2023/03/23 04:53:03;;;;;;;2.55;1.90;;;12.60;99.90;;;;;;5032380;28;20175;-45
2023/03/23 04:55:36;;;;;;;3.03;1.83;;;12.50;99.90;;;;;;5031743;28;20178;-45
2023/03/23 04:58:06;;;;;;;3.42;1.73;;;12.60;99.90;;;;;;5031428;28;20186;-45
2023/03/23 05:00:34;;;;;;;3.30;1.73;;;12.50;99.90;;;;;;5031120;28;20727;-45
2023/03/23 05:03:00;;;;;;;2.20;1.80;;;;;;;;;;5031137;28;20182;-46
2023/03/23 05:05:29;;;;;;;2.92;1.90;;;12.60;99.90;;;;;;5031723;28;20706;-46
2023/03/23 05:07:54;;;;;;;1.60;1.48;;;12.60;99.90;;;;;;5031195;28;20716;-45
2023/03/23 05:10:20;;;;;;;5.40;2.00;;;12.60;99.90;;;;;;5030909;28;20176;-47
2023/03/23 05:12:46;;;;;;;2.17;1.60;;;12.60;99.90;;;;;;5031001;28;20211;-45
2023/03/23 05:15:14;;;;;;;4.72;1.48;;;12.60;99.90;;;;;;5031033;28;20504;-46
2023/03/23 05:17:40;;;;;;;4.28;1.75;;;12.60;99.90;;;;;;5031116;28;20187;-48
2023/03/23 05:20:11;;;;;;;3.50;1.88;;;12.60;99.90;;;;;;5031378;28;20168;-46
2023/03/23 05:22:38;;;;;;;2.03;1.83;;;12.60;99.90;;;;;;5031204;28;20176;-45
2023/03/23 05:25:04;;;;;;;2.63;1.63;;;12.50;99.90;;;;;;5031124;28;20266;-45
2023/03/23 05:27:32;;;;;;;2.55;2.08;;;12.50;99.90;;;;;;5031219;28;20175;-45
2023/03/23 05:29:58;;;;;;;2.72;1.55;;;12.50;99.90;;;;;;5030378;28;20198;-46
2023/03/23 05:32:29;;;;;;;2.50;1.63;;;12.40;99.90;;;;;;5031292;28;20218;-45
2023/03/23 05:34:58;;;;;;;4.60;2.03;;;12.40;99.90;;;;;;5031359;28;20174;-45
2023/03/23 05:37:26;;;;;;;3.20;1.80;;;12.50;99.90;;;;;;5031222;28;20576;-46
2023/03/23 05:39:53;;;;;;;5.88;2.08;;;12.40;99.90;;;;;;5031244;28;20210;-44
2023/03/23 05:42:20;;;;;;;1.88;1.40;;;12.40;99.90;;;;;;5030936;28;20183;-45
2023/03/23 05:44:46;;;;;;;3.03;2.05;;;12.40;99.90;;;;;;5030549;28;20527;-45
2023/03/23 05:47:12;;;;;;;2.08;1.73;;;12.40;99.90;;;;;;5030659;28;20211;-45
2023/03/23 05:49:38;;;;;;;3.83;1.45;;;12.40;99.90;;;;;;5030513;28;20596;-46
2023/03/23 05:52:04;;;;;;;2.83;1.60;;;;;;;;;;5030547;28;20167;-45
2023/03/23 05:54:29;;;;;;;3.75;1.52;;;12.40;99.90;;;;;;5030427;28;20191;-45
2023/03/23 05:56:55;;;;;;;3.67;1.75;;;12.30;99.90;;;;;;5030767;28;20168;-45
2023/03/23 05:59:21;;;;;;;2.90;1.63;;;;;;;;;;5030160;28;20584;-45
2023/03/23 06:01:46;;;;;;;2.35;1.85;;;12.30;99.90;;;;;;5031401;28;20195;-45
2023/03/23 06:04:13;;;;;;;5.30;1.88;;;12.30;99.90;;;;;;5034040;28;20697;-45
2023/03/23 06:06:40;;;;;;;4.55;2.08;;;12.40;99.90;;;;;;5034025;28;20207;-45
2023/03/23 06:09:07;;;;;;;3.75;1.70;;;;;;;;;;5033770;28;20232;-45
2023/03/23 06:11:33;;;;;;;5.18;1.75;;;12.40;99.90;;;;;;5034527;28;20186;-45
2023/03/23 06:13:59;;;;;;;3.65;1.80;;;;;;;;;;5033547;28;20167;-45
2023/03/23 06:16:25;;;;;;;2.47;2.15;;;;;;;;;;5034394;28;20225;-44
2023/03/23 06:18:51;;;;;;;4.28;1.63;;;;;;;;;;5034151;28;20175;-45
2023/03/23 06:21:18;;;;;;;3.38;1.40;;;12.50;99.90;;;;;;5033828;28;20175;-44
2023/03/23 06:23:45;;;;;;;4.28;1.77;;;12.60;99.90;;;;;;5034097;28;20203;-44
2023/03/23 06:26:14;;;;;;;4.85;1.67;;;12.50;99.90;;;;;;5033963;28;20207;-44
2023/03/23 06:28:40;;;;;;;5.00;1.17;;;12.50;99.90;;;;;;5033331;28;20183;-45
2023/03/23 06:31:07;;;;;;;7.60;1.70;;;12.60;99.90;;;;;;5033586;28;20187;-45
2023/03/23 06:33:34;;;;;;;5.05;1.90;;;12.60;99.90;;;;;;5033548;28;20521;-45
2023/03/23 06:36:00;;;;;;;2.88;1.70;;;12.60;99.90;;;;;;5033508;28;20694;-47
2023/03/23 06:38:26;;;;;;;3.67;1.90;;;;;;;;;;5034063;28;20254;-46
2023/03/23 06:40:55;;;;;;;5.32;1.92;;;12.70;99.90;;;;;;5033691;28;20171;-51
2023/03/23 06:43:21;;;;;;;3.08;1.52;;;12.60;99.90;;;;;;5033632;28;20163;-45
2023/03/23 06:45:46;;;;;;;3.42;1.40;;;12.70;99.90;;;;;;5033209;28;20533;-45
2023/03/23 06:48:12;;;;;;;3.70;1.50;;;12.70;99.90;;;;;;5033284;28;20639;-45
2023/03/23 06:50:38;;;;;;;3.38;1.40;;;12.80;99.90;;;;;;5032975;28;20251;-45
2023/03/23 06:53:03;;;;;;;4.07;1.60;;;12.70;99.90;;;;;;5033230;28;20164;-45
2023/03/23 06:55:29;;;;;;;3.00;1.60;;;12.70;99.90;;;;;;5033237;28;20174;-44
2023/03/23 06:57:55;;;;;;;1.83;1.55;;;12.70;99.90;;;;;;5033616;28;20713;-44
2023/03/23 07:00:20;;;;;;;5.18;1.55;;;12.70;99.90;;;;;;5033742;28;20178;-44
2023/03/23 07:02:46;;;;;;;6.15;1.70;;;;;;;;;;5033650;28;20163;-44
2023/03/23 07:05:12;;;;;;;1.77;1.65;;;12.70;99.90;;;;;;5033310;28;20635;-44
2023/03/23 07:07:39;;;;;;;2.72;2.00;;;12.80;99.90;;;;;;5033043;28;20219;-45
2023/03/23 07:10:06;;;;;;;2.50;1.50;;;12.80;99.90;;;;;;5033693;28;20649;-49
2023/03/23 07:12:32;;;;;;;2.28;1.02;;;12.80;99.90;;;;;;5031937;28;20532;-48
2023/03/23 07:14:58;;;;;;;3.65;1.40;;;;;;;;;;5032964;28;20167;-44
2023/03/23 07:17:25;;;;;;;5.82;1.38;;;12.90;99.90;;;;;;5033679;28;20171;-45
2023/03/23 07:19:50;;;;;;;4.30;1.40;;;12.90;99.90;;;;;;5032936;28;20191;-44
2023/03/23 07:22:16;;;;;;;2.00;1.30;;;;;;;;;;5033333;28;20179;-46
2023/03/23 07:24:42;;;;;;;2.50;1.33;;;12.90;99.90;;;;;;5033239;28;20195;-45
2023/03/23 07:27:09;;;;;;;1.33;1.20;;;13.00;99.90;;;;;;5033016;28;20741;-44
2023/03/23 07:29:35;;;;;;;7.05;2.25;;;13.00;99.90;;;;;;5033263;28;20572;-49
2023/03/23 07:32:01;;;;;;;2.60;1.40;;;13.00;99.90;;;;;;5033273;28;20175;-47
2023/03/23 07:34:27;;;;;;;4.82;1.25;;;13.00;99.90;;;;;;5033372;28;20167;-44
2023/03/23 07:36:53;;;;;;;2.50;1.35;;;13.00;99.90;;;;;;5033512;28;20166;-45
2023/03/23 07:39:19;;;;;;;5.38;1.73;;;13.10;99.90;;;;;;5033228;28;20531;-44
2023/03/23 07:41:44;;;;;;;3.45;1.25;;;13.10;99.90;;;;;;5032728;28;20190;-45
2023/03/23 07:44:10;;;;;;;4.88;1.40;;;13.10;99.90;;;;;;5032845;28;20171;-44
2023/03/23 07:46:36;;;;;;;4.63;1.25;;;;;;;;;;5032662;28;20207;-44
2023/03/23 07:49:05;;;;;;;2.88;1.55;;;13.10;99.90;;;;;;5032739;28;20171;-45
2023/03/23 07:51:31;;;;;;;4.95;1.13;;;13.20;99.90;;;;;;5032611;28;20206;-46
2023/03/23 07:53:57;;;;;;;2.78;1.40;;;13.20;99.90;;;;;;5033323;28;20172;-44
2023/03/23 07:56:22;;;;;;;3.80;1.65;;;13.30;99.90;;;;;;5032540;28;20171;-47
2023/03/23 07:58:48;;;;;;;3.33;1.40;;;13.30;99.90;;;;;;5032545;28;20241;-45
2023/03/23 08:01:14;;;;;;;6.07;1.95;;;13.40;99.90;;;;;;5032449;28;20171;-47
2023/03/23 08:03:39;;;;;;;5.28;1.95;;;13.30;99.90;;;;;;5032442;28;20191;-45
2023/03/23 08:06:05;;;;;;;4.05;1.23;;;13.30;99.90;;;;;;5032082;28;20655;-45
2023/03/23 08:08:32;;;;;;;2.72;1.48;;;13.40;99.90;;;;;;5032328;28;20251;-44
2023/03/23 08:10:58;;;;;;;3.47;1.50;;;;;;;;;;5033106;28;20175;-44
2023/03/23 08:13:24;;;;;;;4.50;1.65;;;13.40;99.90;;;;;;5032897;28;20221;-46
2023/03/23 08:15:51;;;;;;;4.03;1.23;;;13.40;99.90;;;;;;5032165;28;20176;-45
2023/03/23 08:18:17;;;;;;;5.25;1.50;;;13.40;99.90;;;;;;5032383;28;20183;-46
2023/03/23 08:20:44;;;;;;;7.05;1.80;;;13.50;99.90;;;;;;5032396;28;20528;-45
2023/03/23 08:23:10;;;;;;;7.82;1.55;;;13.50;99.90;;;;;;5032420;28;20202;-46
2023/03/23 08:25:36;;;;;;;2.70;1.20;;;13.50;99.90;;;;;;5031856;28;20282;-44
2023/03/23 08:28:02;;;;;;;2.83;1.42;;;13.60;99.90;;;;;;5032149;28;20163;-44
2023/03/23 08:30:29;;;;;;;5.50;1.67;;;;;;;;;;5032001;28;20264;-44
2023/03/23 08:32:56;;;;;;;5.78;1.80;;;13.70;99.90;;;;;;5032601;28;20179;-44
2023/03/23 08:35:22;;;;;;;4.93;1.60;;;13.80;99.90;;;;;;5032232;28;20163;-45
2023/03/23 08:37:51;;;;;;;4.22;1.73;;;;;;;;;;5031826;28;20650;-45
2023/03/23 08:40:19;;;;;;;1.42;1.10;;;13.80;99.90;;;;;;5031782;28;20203;-46
2023/03/23 08:42:45;;;;;;;5.63;1.60;;;13.80;99.90;;;;;;5032034;28;20175;-44
2023/03/23 08:45:13;;;;;;;4.40;1.50;;;13.90;99.90;;;;;;5031548;28;20172;-44
2023/03/23 08:47:40;;;;;;;7.72;1.65;;;13.90;99.90;;;;;;5031729;28;20245;-44
2023/03/23 08:50:08;;;;;;;4.70;1.95;;;14.00;99.90;;;;;;5031703;28;20646;-44
2023/03/23 08:52:33;;;;;;;4.55;1.80;;;14.00;99.90;;;;;;5031749;28;20178;-44
2023/03/23 08:54:59;;;;;;;7.63;2.00;;;14.00;99.90;;;;;;5031621;28;20175;-44
2023/03/23 08:57:27;;;;;;;3.15;1.80;;;14.20;99.90;;;;;;5032021;28;20221;-45
2023/03/23 08:59:59;;;;;;;6.75;1.83;;;14.00;99.90;;;;;;5032156;28;20197;-45
2023/03/23 09:02:25;;;;;;;6.40;2.30;;;14.00;99.90;;;;;;5032191;28;20176;-44
2023/03/23 09:04:52;;;;;;;3.63;1.45;;;14.10;99.90;;;;;;5031760;28;20172;-45
2023/03/23 09:07:18;;;;;;;3.97;1.70;;;14.10;99.90;;;;;;5031539;28;20242;-44
2023/03/23 09:09:43;;;;;;;3.92;1.33;;;14.20;99.90;;;;;;5031761;28;20596;-44
2023/03/23 09:12:09;;;;;;;5.63;1.90;;;14.10;99.90;;;;;;5031795;28;20538;-44
2023/03/23 09:14:36;;;;;;;5.50;1.50;;;14.10;99.90;;;;;;5030284;28;20550;-44
2023/03/23 09:17:02;;;;;;;5.22;1.58;;;14.20;99.90;;;;;;5031387;28;20213;-45
2023/03/23 09:19:29;;;;;;;6.38;2.10;;;14.10;99.90;;;;;;5031639;28;20619;-44
2023/03/23 09:21:55;;;;;;;3.08;1.80;;;14.10;99.90;;;;;;5030549;28;20182;-44
2023/03/23 09:24:20;;;;;;;9.02;2.28;;;14.10;99.90;;;;;;5031389;28;20163;-45
2023/03/23 09:26:46;;;;;;;3.63;1.63;;;14.10;99.90;;;;;;5030838;28;20207;-45
2023/03/23 09:29:12;;;;;;;7.07;1.88;;;14.10;99.90;;;;;;5030955;28;20689;-44
2023/03/23 09:31:40;;;;;;;8.93;2.00;;;14.10;99.90;;;;;;5031050;28;20171;-44
2023/03/23 09:34:06;;;;;;;5.13;1.48;;;14.10;99.90;;;;;;5031077;28;20171;-44
2023/03/23 09:36:32;;;;;;;4.70;1.52;;;14.00;99.90;;;;;;5031343;28;20251;-44
2023/03/23 09:38:58;;;;;;;5.90;1.60;;;14.00;99.90;;;;;;5034947;28;20294;-45
2023/03/23 09:41:36;;;;;;;3.78;1.45;;;13.90;99.90;;;;;;5035250;28;20721;-45
2023/03/23 09:44:27;;;;;;;3.00;1.30;;;14.00;99.90;;;;;;5034407;28;20159;-44
2023/03/23 09:47:18;;;;;;;6.55;1.60;;;14.00;99.90;;;;;;5033790;28;20300;-44
2023/03/23 09:49:51;;;;;;;4.05;1.95;;;14.00;99.90;;;;;;5034539;28;20242;-45
2023/03/23 09:52:19;;;;;;;4.07;1.80;;;14.00;99.90;;;;;;5034588;28;20623;-45
2023/03/23 09:54:53;;;;;;;6.03;1.85;;;14.00;99.90;;;;;;5034638;28;20183;-44
2023/03/23 09:57:43;;;;;;;4.68;1.60;;;14.10;99.90;;;;;;5034554;28;20194;-45
2023/03/23 10:00:24;;;;;;;4.85;1.48;;;14.20;99.90;;;;;;5023092;28;20180;-44
2023/03/23 10:03:05;;;;;;;3.15;1.45;;;14.20;99.90;;;;;;5034476;28;20685;-45
2023/03/23 10:05:44;;;;;;;3.63;1.30;;;14.10;99.90;;;;;;5034018;28;20163;-44
2023/03/23 10:08:15;;;;;;;3.05;1.58;;;14.00;99.90;;;;;;5034032;28;20214;-45
2023/03/23 10:10:44;;;;;;;27.95;1.80;;;13.90;99.90;;;;;;5034371;28;20250;-45
2023/03/23 10:13:32;;;;;;;5.97;1.75;;;13.90;99.90;;;;;;5034224;28;20250;-45
2023/03/23 10:15:58;;;;;;;3.60;1.38;;;;;;;;;;5034155;28;20172;-45
2023/03/23 10:19:13;;;;;;;3.90;1.27;;;13.80;99.90;;;;;;5033528;28;20179;-44
2023/03/23 10:21:44;;;;;;;6.72;1.58;;;13.80;99.90;;;;;;5032026;28;20171;-47
2023/03/23 10:24:17;;;;;;;2.65;0.93;;;13.80;99.90;;;;;;5033982;28;20575;-46
2023/03/23 10:27:33;;;;;;;3.53;1.50;;;13.80;99.90;;;;;;5034093;28;20326;-51
2023/03/23 10:30:14;;;;;;;2.33;1.05;;;13.80;99.90;;;;;;5032530;28;20211;-52
2023/03/23 10:33:05;;;;;;;3.33;1.08;;;13.90;99.90;;;;;;5033740;28;20171;-48
2023/03/23 10:35:37;;;;;;;1.65;0.85;;;14.00;99.90;;;;;;5027258;28;20192;-45
2023/03/23 10:38:19;;;;;;;1.77;0.65;;;14.00;99.90;;;;;;5033840;28;20171;-47
2023/03/23 10:40:56;;;;;;;2.85;1.15;;;13.90;99.90;;;;;;5034010;28;20205;-45
2023/03/23 10:43:23;;;;;;;6.10;1.13;;;14.00;99.90;;;;;;5033287;28;20179;-46
2023/03/23 10:45:57;;;;;;;4.65;0.80;;;14.00;99.90;;;;;;5033149;28;20249;-45
2023/03/23 10:48:32;;;;;;;4.90;1.33;;;14.10;99.90;;;;;;5032914;28;20167;-45
2023/03/23 10:51:01;;;;;;;1.58;0.98;;;14.20;99.90;;;;;;5033836;28;20171;-45
2023/03/23 10:53:32;;;;;;;6.65;1.35;;;14.20;99.90;;;;;;5033676;28;20262;-45
2023/03/23 10:55:59;;;;;;;3.00;1.20;;;14.20;99.90;;;;;;5033266;28;20730;-44
2023/03/23 10:58:34;;;;;;;3.22;1.17;;;14.20;99.90;;;;;;5033928;28;20262;-44
2023/03/23 11:01:02;;;;;;;2.50;1.13;;;14.40;99.90;;;;;;5033535;28;20174;-45
2023/03/23 11:03:40;;;;;;;1.92;1.40;;;14.40;99.90;;;;;;5033254;28;20742;-44
2023/03/23 11:06:08;;;;;;;6.47;1.80;;;14.60;99.90;;;;;;5033194;28;20566;-45
2023/03/23 11:08:49;;;;;;;7.72;1.30;;;14.70;99.90;;;;;;5032949;28;20276;-45
2023/03/23 11:11:15;;;;;;;4.53;1.30;;;14.60;99.90;;;;;;5033203;28;20222;-44
2023/03/23 11:13:51;;;;;;;4.80;1.10;;;14.50;99.90;;;;;;5032727;28;20195;-44
2023/03/23 11:16:30;;;;;;;4.50;1.40;;;14.40;99.90;;;;;;5033158;28;20183;-45
2023/03/23 11:19:11;;;;;;;3.42;1.13;;;14.50;99.90;;;;;;5033542;28;20171;-44
2023/03/23 11:21:38;;;;;;;4.63;1.45;;;14.40;99.90;;;;;;5033065;28;20171;-44
2023/03/23 11:24:05;;;;;;;1.85;1.15;;;14.40;99.90;;;;;;5032468;28;20175;-44
2023/03/23 11:26:33;;;;;;;3.25;1.23;;;14.30;99.90;;;;;;5032465;28;20348;-44
2023/03/23 11:29:05;;;;;;;5.45;1.85;;;13.90;99.90;;;;;;5032965;28;20174;-44
2023/03/23 11:31:34;;;;;;;5.35;2.22;;;13.70;99.90;;;;;;5032782;28;20168;-44
2023/03/23 11:34:05;;;;;;;2.55;1.50;;;13.60;99.90;;;;;;5032544;28;20167;-44
2023/03/23 11:36:40;;;;;;;4.18;1.77;;;13.60;99.90;;;;;;5032544;28;20226;-45
2023/03/23 11:39:26;;;;;;;3.03;1.58;;;13.60;99.90;;;;;;5032658;28;20262;-44
2023/03/23 11:41:52;;;;;;;3.20;1.33;;;13.60;99.90;;;;;;5032761;28;20167;-44
2023/03/23 11:44:18;;;;;;;6.00;1.70;;;13.60;99.90;;;;;;5031922;28;20540;-45
2023/03/23 11:47:01;;;;;;;3.38;1.63;;;13.50;99.90;;;;;;5031875;28;20294;-44
2023/03/23 11:49:45;;;;;;;0.93;0.90;;;13.80;99.90;;;;;;5033115;28;20167;-44
2023/03/23 11:52:23;;;;;;;2.83;0.85;;;14.10;99.90;;;;;;5032290;28;20167;-44
2023/03/23 11:55:02;;;;;;;3.20;1.10;;;14.50;99.90;;;;;;5032293;28;20167;-44
2023/03/23 11:57:30;;;;;;;1.92;0.95;;;;;;;;;;5032281;28;20249;-45
2023/03/23 12:00:00;;;;;;;2.22;1.08;;;14.70;99.90;;;;;;5031769;28;20321;-44
2023/03/23 12:02:50;;;;;;;2.10;1.20;;;14.70;99.90;;;;;;5032268;28;20508;-44
2023/03/23 12:05:43;;;;;;;3.28;1.15;;;15.00;99.90;;;;;;5031645;28;20543;-45
2023/03/23 12:08:18;;;;;;;1.50;1.20;;;15.00;99.90;;;;;;5031793;28;20250;-44
2023/03/23 12:11:12;;;;;;;2.80;1.10;;;14.90;99.90;;;;;;5032027;28;20285;-49
2023/03/23 12:14:10;;;;;;;5.25;1.58;;;14.80;99.90;;;;;;5032362;28;20186;-45
2023/03/23 12:17:06;;;;;;;5.35;1.75;;;14.90;99.90;;;;;;5016331;28;20187;-45
2023/03/23 12:20:16;;;;;;;3.33;1.17;;;14.90;99.90;;;;;;5031428;28;20245;-47
2023/03/23 12:23:13;;;;;;;2.38;1.23;;;15.00;99.90;;;;;;5031933;28;20248;-44
2023/03/23 12:25:52;;;;;;;3.22;1.55;;;15.10;99.90;;;;;;5031490;28;20250;-49
2023/03/23 12:28:42;;;;;;;5.15;1.83;;;15.20;99.90;;;;;;5031390;28;20674;-45
2023/03/23 12:31:28;;;;;;;6.30;1.90;;;15.20;99.90;;;;;;5031483;28;20199;-46
2023/03/23 12:34:16;;;;;;;1.20;1.08;;;15.30;99.90;;;;;;5032010;28;20195;-45
2023/03/23 12:36:45;;;;;;;3.47;1.35;;;15.30;99.90;;;;;;5031397;28;20167;-45
2023/03/23 12:39:41;;;;;;;4.10;1.10;;;15.30;99.90;;;;;;5031561;28;20186;-45
2023/03/23 12:42:42;;;;;;;3.78;1.42;;;15.30;99.90;;;;;;5031522;28;20168;-45
2023/03/23 12:45:12;;;;;;;4.85;1.70;;;15.20;99.90;;;;;;5029721;28;20214;-46
2023/03/23 12:47:50;;;;;;;2.70;1.15;;;15.30;99.90;;;;;;5031140;28;20636;-46
2023/03/23 12:50:45;;;;;;;1.90;1.13;;;15.20;99.90;;;;;;5031539;28;20203;-47
2023/03/23 12:53:11;;;;;;;5.97;1.27;;;;;;;;;;5030740;28;20175;-46
2023/03/23 12:55:49;;;;;;;3.85;1.35;;;15.00;99.90;;;;;;5031242;28;20163;-47
2023/03/23 12:58:28;;;;;;;7.32;3.25;;;15.10;99.90;;;;;;5031248;28;20254;-48
2023/03/23 13:01:00;;;;;;;3.47;1.40;;;15.10;99.90;;;;;;5031438;28;20179;-46
2023/03/23 13:03:32;;;;;;;4.07;1.40;;;15.00;99.90;;;;;;5031716;28;20198;-47
2023/03/23 13:06:08;;;;;;;1.30;0.95;;;14.90;99.90;;;;;;5030902;28;20586;-45
2023/03/23 13:08:44;;;;;;;5.95;1.38;;;15.10;99.90;;;;;;5031177;28;20250;-45
2023/03/23 13:11:15;;;;;;;1.23;1.05;;;15.00;99.90;;;;;;5033014;28;20170;-46
2023/03/23 13:13:56;;;;;;;5.22;1.70;;;15.00;99.90;;;;;;5035449;28;20165;-44